createdAt,value
2018-11-25T00:00:15.006Z,994.7
2018-11-25T00:01:15.719Z,994.7
2018-11-25T00:02:16.448Z,994.7
2018-11-25T00:03:17.155Z,994.7
2018-11-25T00:04:17.875Z,994.7
2018-11-25T00:05:18.590Z,994.7
2018-11-25T00:06:19.311Z,994.7
2018-11-25T00:07:20.030Z,994.6
2018-11-25T00:08:20.756Z,994.6
2018-11-25T00:09:21.468Z,994.7
2018-11-25T00:10:22.181Z,994.7
2018-11-25T00:11:22.896Z,994.7
2018-11-25T00:12:23.615Z,994.7
2018-11-25T00:13:24.377Z,994.7
2018-11-25T00:14:25.106Z,994.6
2018-11-25T00:15:25.807Z,994.6
2018-11-25T00:16:26.775Z,994.6
2018-11-25T00:17:27.487Z,994.6
2018-11-25T00:18:28.208Z,994.6
2018-11-25T00:19:28.919Z,994.6
2018-11-25T00:20:29.634Z,994.6
2018-11-25T00:21:30.358Z,994.6
2018-11-25T00:22:31.074Z,994.6
2018-11-25T00:23:31.790Z,994.6
2018-11-25T00:24:32.525Z,994.6
2018-11-25T00:25:33.226Z,994.6
2018-11-25T00:26:33.944Z,994.6
2018-11-25T00:27:34.661Z,994.6
2018-11-25T00:28:35.370Z,994.6
2018-11-25T00:29:36.082Z,994.6
2018-11-25T00:30:36.803Z,994.6
2018-11-25T00:31:37.504Z,994.6
2018-11-25T00:32:38.212Z,994.6
2018-11-25T00:33:38.975Z,994.6
2018-11-25T00:34:39.684Z,994.6
2018-11-25T00:35:40.396Z,994.6
2018-11-25T00:36:41.107Z,994.5
2018-11-25T00:37:48.073Z,994.6
2018-11-25T00:38:42.547Z,994.5
2018-11-25T00:39:43.400Z,994.6
2018-11-25T00:40:44.105Z,994.6
2018-11-25T00:41:44.816Z,994.5
2018-11-25T00:42:45.530Z,994.5
2018-11-25T00:43:46.241Z,994.5
2018-11-25T00:44:46.948Z,994.5
2018-11-25T00:45:47.668Z,994.5
2018-11-25T00:46:48.386Z,994.5
2018-11-25T00:47:49.103Z,994.5
2018-11-25T00:48:49.862Z,994.5
2018-11-25T00:49:50.582Z,994.5
2018-11-25T00:50:51.283Z,994.5
2018-11-25T00:51:52.002Z,994.5
2018-11-25T00:52:52.721Z,994.5
2018-11-25T00:53:53.432Z,994.5
2018-11-25T00:54:54.238Z,994.5
2018-11-25T00:55:54.957Z,994.5
2018-11-25T00:56:55.669Z,994.5
2018-11-25T00:57:56.373Z,994.5
2018-11-25T00:58:57.085Z,994.5
2018-11-25T00:59:57.909Z,994.5
2018-11-25T01:00:58.618Z,994.5
2018-11-25T01:01:59.332Z,994.5
2018-11-25T01:03:00.044Z,994.5
2018-11-25T01:04:00.755Z,994.4
2018-11-25T01:05:01.471Z,994.5
2018-11-25T01:06:02.193Z,994.4
2018-11-25T01:07:02.905Z,994.5
2018-11-25T01:08:03.622Z,994.4
2018-11-25T01:09:04.591Z,994.4
2018-11-25T01:10:05.562Z,994.4
2018-11-25T01:11:06.278Z,994.3
2018-11-25T01:12:07.037Z,994.4
2018-11-25T01:13:07.701Z,994.4
2018-11-25T01:14:08.407Z,994.4
2018-11-25T01:15:09.118Z,994.4
2018-11-25T01:16:09.928Z,994.4
2018-11-25T01:17:10.644Z,994.4
2018-11-25T01:18:11.349Z,994.4
2018-11-25T01:19:12.068Z,994.4
2018-11-25T01:20:12.781Z,994.4
2018-11-25T01:21:13.593Z,994.4
2018-11-25T01:22:14.561Z,994.4
2018-11-25T01:23:15.280Z,994.4
2018-11-25T01:24:15.989Z,994.4
2018-11-25T01:25:16.702Z,994.5
2018-11-25T01:26:17.407Z,994.5
2018-11-25T01:27:18.113Z,994.5
2018-11-25T01:28:18.828Z,994.5
2018-11-25T01:29:19.532Z,994.5
2018-11-25T01:30:20.251Z,994.5
2018-11-25T01:31:20.963Z,994.5
2018-11-25T01:32:21.674Z,994.5
2018-11-25T01:33:22.377Z,994.5
2018-11-25T01:34:23.094Z,994.5
2018-11-25T01:35:23.797Z,994.5
2018-11-25T01:36:24.518Z,994.5
2018-11-25T01:37:25.230Z,994.5
2018-11-25T01:38:25.946Z,994.5
2018-11-25T01:39:26.657Z,994.4
2018-11-25T01:40:27.475Z,994.5
2018-11-25T01:41:28.176Z,994.4
2018-11-25T01:42:28.902Z,994.4
2018-11-25T01:43:29.618Z,994.4
2018-11-25T01:44:30.326Z,994.4
2018-11-25T01:45:31.282Z,994.4
2018-11-25T01:46:31.994Z,994.4
2018-11-25T01:47:32.719Z,994.4
2018-11-25T01:48:33.435Z,994.4
2018-11-25T01:49:34.149Z,994.4
2018-11-25T01:50:34.911Z,994.4
2018-11-25T01:51:35.590Z,994.4
2018-11-25T01:52:36.291Z,994.3
2018-11-25T01:53:37.010Z,994.4
2018-11-25T01:54:37.724Z,994.3
2018-11-25T01:55:38.433Z,994.3
2018-11-25T01:56:39.136Z,994.3
2018-11-25T01:57:39.951Z,994.3
2018-11-25T01:58:40.657Z,994.3
2018-11-25T01:59:41.371Z,994.3
2018-11-25T02:00:42.089Z,994.3
2018-11-25T02:01:42.797Z,994.3
2018-11-25T02:02:43.519Z,994.2
2018-11-25T02:03:44.227Z,994.2
2018-11-25T02:04:45.184Z,994.2
2018-11-25T02:05:45.902Z,994.2
2018-11-25T02:06:46.628Z,994.2
2018-11-25T02:07:47.334Z,994.2
2018-11-25T02:08:48.040Z,994.2
2018-11-25T02:09:48.814Z,994.2
2018-11-25T02:10:49.542Z,994.2
2018-11-25T02:11:50.239Z,994.2
2018-11-25T02:12:50.963Z,994.2
2018-11-25T02:13:51.684Z,994.2
2018-11-25T02:14:52.394Z,994.2
2018-11-25T02:15:53.356Z,994.2
2018-11-25T02:16:54.084Z,994.2
2018-11-25T02:17:54.792Z,994.2
2018-11-25T02:18:55.510Z,994.2
2018-11-25T02:19:56.231Z,994.2
2018-11-25T02:20:56.944Z,994.2
2018-11-25T02:21:57.655Z,994.2
2018-11-25T02:22:58.374Z,994.2
2018-11-25T02:23:59.094Z,994.2
2018-11-25T02:24:59.870Z,994.2
2018-11-25T02:26:00.589Z,994.2
2018-11-25T02:27:01.297Z,994.2
2018-11-25T02:28:02.010Z,994.2
2018-11-25T02:29:02.722Z,994.2
2018-11-25T02:30:03.587Z,994.2
2018-11-25T02:31:04.306Z,994.2
2018-11-25T02:32:05.265Z,994.1
2018-11-25T02:33:05.980Z,994.2
2018-11-25T02:34:06.681Z,994.1
2018-11-25T02:35:07.396Z,994.1
2018-11-25T02:36:08.102Z,994.2
2018-11-25T02:37:08.867Z,994.1
2018-11-25T02:38:09.571Z,994.1
2018-11-25T02:39:10.277Z,994.1
2018-11-25T02:40:10.987Z,994.1
2018-11-25T02:41:11.709Z,994.1
2018-11-25T02:42:12.415Z,994.1
2018-11-25T02:43:14.017Z,994.1
2018-11-25T02:44:13.828Z,994.1
2018-11-25T02:45:14.542Z,994.1
2018-11-25T02:46:15.248Z,994.1
2018-11-25T02:47:16.156Z,994.1
2018-11-25T02:48:16.862Z,994.1
2018-11-25T02:49:17.589Z,994.2
2018-11-25T02:50:18.311Z,994.2
2018-11-25T02:51:19.015Z,994.1
2018-11-25T02:52:19.738Z,994.1
2018-11-25T02:53:20.451Z,994.1
2018-11-25T02:54:21.170Z,994.1
2018-11-25T02:55:21.886Z,994.1
2018-11-25T02:56:22.603Z,994.1
2018-11-25T02:57:23.309Z,994.1
2018-11-25T02:58:24.374Z,994.1
2018-11-25T02:59:25.089Z,994.1
2018-11-25T03:00:26.063Z,994.0
2018-11-25T03:01:26.772Z,994.0
2018-11-25T03:02:27.492Z,994.1
2018-11-25T03:03:28.202Z,994.0
2018-11-25T03:04:29.174Z,994.1
2018-11-25T03:05:29.883Z,994.1
2018-11-25T03:06:30.612Z,994.0
2018-11-25T03:07:31.315Z,994.1
2018-11-25T03:08:32.030Z,994.0
2018-11-25T03:09:32.770Z,994.1
2018-11-25T03:10:33.484Z,994.0
2018-11-25T03:11:34.200Z,994.1
2018-11-25T03:12:34.912Z,994.1
2018-11-25T03:13:35.630Z,994.1
2018-11-25T03:14:36.387Z,994.1
2018-11-25T03:15:37.351Z,994.0
2018-11-25T03:16:38.071Z,994.1
2018-11-25T03:17:38.797Z,994.1
2018-11-25T03:18:39.516Z,994.1
2018-11-25T03:19:40.266Z,994.1
2018-11-25T03:20:41.002Z,994.1
2018-11-25T03:21:41.722Z,994.1
2018-11-25T03:22:42.433Z,994.1
2018-11-25T03:23:43.141Z,994.1
2018-11-25T03:24:43.852Z,994.1
2018-11-25T03:25:44.573Z,994.1
2018-11-25T03:26:45.287Z,994.1
2018-11-25T03:27:45.997Z,994.1
2018-11-25T03:28:46.704Z,994.1
2018-11-25T03:29:47.426Z,994.1
2018-11-25T03:30:48.135Z,994.1
2018-11-25T03:31:48.850Z,994.1
2018-11-25T03:32:49.564Z,994.1
2018-11-25T03:33:50.277Z,994.2
2018-11-25T03:34:51.003Z,994.1
2018-11-25T03:35:51.713Z,994.2
2018-11-25T03:36:52.529Z,994.1
2018-11-25T03:37:53.233Z,994.1
2018-11-25T03:38:53.942Z,994.2
2018-11-25T03:39:54.654Z,994.2
2018-11-25T03:40:55.370Z,994.2
2018-11-25T03:41:56.075Z,994.2
2018-11-25T03:42:56.785Z,994.1
2018-11-25T03:43:57.488Z,994.2
2018-11-25T03:44:58.198Z,994.2
2018-11-25T03:45:58.921Z,994.2
2018-11-25T03:46:59.627Z,994.2
2018-11-25T03:48:00.332Z,994.2
2018-11-25T03:49:01.047Z,994.2
2018-11-25T03:50:01.761Z,994.2
2018-11-25T03:51:02.468Z,994.2
2018-11-25T03:52:03.180Z,994.2
2018-11-25T03:53:03.895Z,994.2
2018-11-25T03:54:04.618Z,994.2
2018-11-25T03:55:05.321Z,994.2
2018-11-25T03:56:06.037Z,994.2
2018-11-25T03:57:06.750Z,994.2
2018-11-25T03:58:07.519Z,994.2
2018-11-25T03:59:08.223Z,994.2
2018-11-25T04:00:08.949Z,994.2
2018-11-25T04:01:09.662Z,994.2
2018-11-25T04:02:10.386Z,994.2
2018-11-25T04:03:11.094Z,994.2
2018-11-25T04:04:11.804Z,994.2
2018-11-25T04:05:12.521Z,994.2
2018-11-25T04:06:13.228Z,994.2
2018-11-25T04:07:13.948Z,994.2
2018-11-25T04:08:14.645Z,994.2
2018-11-25T04:09:15.357Z,994.2
2018-11-25T04:10:16.071Z,994.2
2018-11-25T04:11:16.778Z,994.2
2018-11-25T04:12:17.496Z,994.3
2018-11-25T04:13:18.200Z,994.2
2018-11-25T04:14:18.920Z,994.3
2018-11-25T04:15:19.622Z,994.3
2018-11-25T04:16:20.348Z,994.3
2018-11-25T04:17:21.064Z,994.3
2018-11-25T04:18:22.041Z,994.3
2018-11-25T04:19:22.853Z,994.2
2018-11-25T04:20:23.566Z,994.2
2018-11-25T04:21:24.287Z,994.2
2018-11-25T04:22:24.996Z,994.2
2018-11-25T04:23:25.721Z,994.2
2018-11-25T04:24:26.490Z,994.2
2018-11-25T04:25:27.202Z,994.2
2018-11-25T04:26:27.919Z,994.2
2018-11-25T04:27:29.813Z,994.2
2018-11-25T04:28:29.349Z,994.2
2018-11-25T04:29:30.067Z,994.2
2018-11-25T04:30:30.779Z,994.2
2018-11-25T04:31:31.491Z,994.2
2018-11-25T04:32:32.208Z,994.2
2018-11-25T04:33:32.918Z,994.2
2018-11-25T04:34:33.627Z,994.2
2018-11-25T04:35:34.344Z,994.2
2018-11-25T04:36:35.072Z,994.2
2018-11-25T04:37:35.787Z,994.2
2018-11-25T04:38:36.501Z,994.2
2018-11-25T04:39:37.461Z,994.2
2018-11-25T04:40:38.419Z,994.2
2018-11-25T04:41:39.374Z,994.2
2018-11-25T04:42:40.105Z,994.2
2018-11-25T04:43:40.826Z,994.2
2018-11-25T04:44:41.548Z,994.2
2018-11-25T04:45:42.254Z,994.1
2018-11-25T04:46:42.977Z,994.2
2018-11-25T04:47:43.677Z,994.2
2018-11-25T04:48:44.391Z,994.2
2018-11-25T04:49:45.102Z,994.2
2018-11-25T04:50:45.825Z,994.2
2018-11-25T04:51:46.538Z,994.2
2018-11-25T04:52:47.245Z,994.2
2018-11-25T04:53:47.952Z,994.1
2018-11-25T04:54:48.665Z,994.2
2018-11-25T04:55:49.372Z,994.2
2018-11-25T04:56:50.334Z,994.2
2018-11-25T04:57:51.063Z,994.1
2018-11-25T04:58:51.769Z,994.2
2018-11-25T04:59:52.489Z,994.2
2018-11-25T05:00:53.192Z,994.2
2018-11-25T05:01:53.917Z,994.2
2018-11-25T05:02:54.627Z,994.2
2018-11-25T05:03:55.345Z,994.2
2018-11-25T05:04:56.065Z,994.2
2018-11-25T05:05:56.782Z,994.2
2018-11-25T05:06:57.494Z,994.2
2018-11-25T05:07:58.205Z,994.2
2018-11-25T05:08:58.915Z,994.2
2018-11-25T05:09:59.728Z,994.2
2018-11-25T05:11:00.449Z,994.2
2018-11-25T05:12:01.158Z,994.2
2018-11-25T05:13:01.866Z,994.2
2018-11-25T05:14:02.588Z,994.2
2018-11-25T05:15:03.280Z,994.2
2018-11-25T05:16:03.996Z,994.2
2018-11-25T05:17:04.709Z,994.2
2018-11-25T05:18:05.421Z,994.2
2018-11-25T05:19:06.139Z,994.2
2018-11-25T05:20:06.862Z,994.2
2018-11-25T05:21:07.580Z,994.3
2018-11-25T05:22:08.285Z,994.2
2018-11-25T05:23:08.995Z,994.3
2018-11-25T05:24:09.697Z,994.2
2018-11-25T05:25:10.410Z,994.3
2018-11-25T05:26:11.165Z,994.2
2018-11-25T05:27:11.879Z,994.2
2018-11-25T05:28:12.596Z,994.2
2018-11-25T05:29:13.312Z,994.2
2018-11-25T05:30:14.026Z,994.3
2018-11-25T05:31:14.745Z,994.2
2018-11-25T05:32:15.471Z,994.2
2018-11-25T05:33:16.183Z,994.3
2018-11-25T05:34:16.898Z,994.2
2018-11-25T05:35:17.622Z,994.3
2018-11-25T05:36:18.571Z,994.2
2018-11-25T05:37:19.291Z,994.2
2018-11-25T05:38:19.998Z,994.3
2018-11-25T05:39:20.721Z,994.2
2018-11-25T05:40:21.431Z,994.2
2018-11-25T05:41:22.137Z,994.2
2018-11-25T05:42:22.851Z,994.2
2018-11-25T05:43:23.818Z,994.3
2018-11-25T05:44:24.522Z,994.3
2018-11-25T05:45:25.236Z,994.2
2018-11-25T05:46:25.948Z,994.3
2018-11-25T05:47:26.652Z,994.2
2018-11-25T05:48:27.368Z,994.2
2018-11-25T05:49:36.233Z,994.3
2018-11-25T05:50:29.060Z,994.3
2018-11-25T05:51:29.785Z,994.3
2018-11-25T05:52:30.509Z,994.2
2018-11-25T05:53:31.214Z,994.2
2018-11-25T05:54:31.928Z,994.3
2018-11-25T05:55:32.641Z,994.3
2018-11-25T05:56:33.357Z,994.3
2018-11-25T05:57:34.077Z,994.3
2018-11-25T05:58:35.038Z,994.3
2018-11-25T05:59:35.789Z,994.3
2018-11-25T06:00:36.511Z,994.3
2018-11-25T06:01:37.480Z,994.3
2018-11-25T06:02:38.201Z,994.3
2018-11-25T06:03:38.914Z,994.3
2018-11-25T06:04:39.621Z,994.3
2018-11-25T06:05:40.329Z,994.3
2018-11-25T06:06:41.292Z,994.4
2018-11-25T06:07:42.025Z,994.4
2018-11-25T06:08:42.826Z,994.4
2018-11-25T06:09:43.790Z,994.4
2018-11-25T06:10:44.506Z,994.4
2018-11-25T06:11:45.224Z,994.4
2018-11-25T06:12:45.946Z,994.4
2018-11-25T06:13:46.653Z,994.4
2018-11-25T06:14:47.627Z,994.4
2018-11-25T06:15:48.338Z,994.4
2018-11-25T06:16:49.308Z,994.4
2018-11-25T06:17:50.266Z,994.4
2018-11-25T06:18:50.984Z,994.4
2018-11-25T06:19:51.690Z,994.4
2018-11-25T06:20:52.398Z,994.4
2018-11-25T06:21:53.124Z,994.4
2018-11-25T06:22:53.884Z,994.4
2018-11-25T06:23:54.598Z,994.4
2018-11-25T06:24:55.315Z,994.4
2018-11-25T06:25:56.021Z,994.5
2018-11-25T06:26:56.735Z,994.4
2018-11-25T06:27:57.451Z,994.5
2018-11-25T06:28:58.159Z,994.5
2018-11-25T06:29:58.875Z,994.5
2018-11-25T06:30:59.589Z,994.5
2018-11-25T06:32:00.304Z,994.5
2018-11-25T06:33:01.014Z,994.5
2018-11-25T06:34:01.723Z,994.5
2018-11-25T06:35:02.431Z,994.5
2018-11-25T06:36:03.151Z,994.5
2018-11-25T06:37:03.857Z,994.5
2018-11-25T06:38:04.582Z,994.5
2018-11-25T06:39:05.287Z,994.6
2018-11-25T06:40:06.005Z,994.5
2018-11-25T06:41:06.746Z,994.6
2018-11-25T06:42:07.463Z,994.5
2018-11-25T06:43:08.169Z,994.6
2018-11-25T06:44:09.034Z,994.6
2018-11-25T06:45:09.756Z,994.6
2018-11-25T06:46:10.463Z,994.6
2018-11-25T06:47:11.184Z,994.5
2018-11-25T06:48:12.150Z,994.5
2018-11-25T06:49:12.907Z,994.6
2018-11-25T06:50:13.622Z,994.6
2018-11-25T06:51:14.335Z,994.6
2018-11-25T06:52:15.040Z,994.6
2018-11-25T06:53:15.757Z,994.6
2018-11-25T06:54:16.730Z,994.6
2018-11-25T06:55:17.500Z,994.6
2018-11-25T06:56:18.209Z,994.6
2018-11-25T06:57:18.914Z,994.6
2018-11-25T06:58:19.637Z,994.6
2018-11-25T06:59:20.345Z,994.7
2018-11-25T07:00:21.120Z,994.7
2018-11-25T07:01:21.836Z,994.6
2018-11-25T07:02:22.566Z,994.7
2018-11-25T07:03:23.272Z,994.6
2018-11-25T07:04:23.989Z,994.7
2018-11-25T07:05:24.711Z,994.7
2018-11-25T07:06:25.424Z,994.7
2018-11-25T07:07:26.137Z,994.7
2018-11-25T07:08:26.858Z,994.8
2018-11-25T07:09:27.626Z,994.8
2018-11-25T07:10:28.339Z,994.8
2018-11-25T07:11:29.054Z,994.8
2018-11-25T07:12:29.765Z,994.8
2018-11-25T07:13:30.726Z,994.8
2018-11-25T07:14:31.442Z,994.8
2018-11-25T07:15:32.150Z,994.8
2018-11-25T07:16:32.860Z,994.8
2018-11-25T07:17:33.935Z,994.8
2018-11-25T07:18:34.644Z,994.8
2018-11-25T07:19:35.613Z,994.8
2018-11-25T07:20:36.321Z,994.8
2018-11-25T07:21:37.041Z,994.8
2018-11-25T07:22:37.774Z,994.8
2018-11-25T07:23:38.507Z,994.8
2018-11-25T07:24:39.209Z,994.8
2018-11-25T07:25:39.939Z,994.8
2018-11-25T07:26:40.666Z,994.8
2018-11-25T07:27:41.386Z,994.8
2018-11-25T07:28:42.096Z,994.8
2018-11-25T07:29:42.823Z,994.7
2018-11-25T07:30:43.545Z,994.8
2018-11-25T07:31:44.253Z,994.8
2018-11-25T07:32:44.971Z,994.7
2018-11-25T07:33:45.697Z,994.7
2018-11-25T07:34:46.411Z,994.8
2018-11-25T07:35:47.135Z,994.7
2018-11-25T07:36:47.842Z,994.8
2018-11-25T07:37:49.046Z,994.7
2018-11-25T07:38:49.750Z,994.7
2018-11-25T07:39:50.524Z,994.7
2018-11-25T07:40:51.191Z,994.7
2018-11-25T07:41:51.903Z,994.7
2018-11-25T07:42:52.625Z,994.8
2018-11-25T07:43:53.333Z,994.7
2018-11-25T07:44:54.654Z,994.7
2018-11-25T07:45:55.947Z,994.7
2018-11-25T07:46:56.717Z,994.7
2018-11-25T07:47:57.522Z,994.7
2018-11-25T07:48:58.243Z,994.7
2018-11-25T07:49:58.959Z,994.7
2018-11-25T07:50:59.680Z,994.7
2018-11-25T07:52:00.389Z,994.8
2018-11-25T07:53:01.143Z,994.7
2018-11-25T07:54:01.856Z,994.8
2018-11-25T07:55:02.579Z,994.8
2018-11-25T07:56:03.296Z,994.7
2018-11-25T07:57:04.022Z,994.7
2018-11-25T07:58:04.853Z,994.8
2018-11-25T07:59:05.570Z,994.8
2018-11-25T08:00:06.298Z,994.8
2018-11-25T08:01:07.001Z,994.8
2018-11-25T08:02:07.714Z,994.8
2018-11-25T08:03:08.427Z,994.8
2018-11-25T08:04:09.144Z,994.9
2018-11-25T08:05:09.853Z,994.9
2018-11-25T08:06:10.573Z,994.9
2018-11-25T08:07:11.325Z,994.9
2018-11-25T08:08:12.049Z,994.9
2018-11-25T08:09:13.567Z,994.9
2018-11-25T08:10:14.900Z,994.9
2018-11-25T08:11:15.661Z,994.9
2018-11-25T08:12:16.837Z,995.0
2018-11-25T08:13:17.550Z,995.0
2018-11-25T08:14:18.262Z,995.0
2018-11-25T08:15:18.979Z,995.0
2018-11-25T08:16:19.706Z,995.0
2018-11-25T08:17:20.417Z,995.0
2018-11-25T08:18:21.133Z,995.0
2018-11-25T08:19:21.845Z,995.0
2018-11-25T08:20:22.577Z,995.0
2018-11-25T08:21:23.403Z,995.0
2018-11-25T08:22:24.111Z,995.0
2018-11-25T08:23:24.829Z,995.0
2018-11-25T08:24:25.562Z,995.0
2018-11-25T08:25:26.274Z,995.1
2018-11-25T08:26:26.996Z,995.0
2018-11-25T08:27:27.721Z,995.0
2018-11-25T08:28:28.438Z,995.0
2018-11-25T08:29:29.231Z,995.0
2018-11-25T08:30:29.947Z,995.0
2018-11-25T08:31:31.000Z,995.0
2018-11-25T08:32:31.721Z,995.1
2018-11-25T08:33:32.444Z,995.0
2018-11-25T08:34:33.182Z,995.1
2018-11-25T08:35:33.884Z,995.2
2018-11-25T08:36:34.615Z,995.2
2018-11-25T08:37:35.337Z,995.2
2018-11-25T08:38:36.058Z,995.2
2018-11-25T08:39:36.738Z,995.2
2018-11-25T08:40:37.580Z,995.2
2018-11-25T08:41:38.299Z,995.2
2018-11-25T08:42:39.019Z,995.1
2018-11-25T08:43:39.741Z,995.1
2018-11-25T08:44:40.482Z,995.1
2018-11-25T08:45:41.459Z,995.1
2018-11-25T08:46:42.330Z,995.1
2018-11-25T08:47:43.301Z,995.1
2018-11-25T08:48:44.265Z,995.1
2018-11-25T08:49:44.979Z,995.1
2018-11-25T08:50:45.702Z,995.1
2018-11-25T08:51:46.481Z,995.1
2018-11-25T08:52:47.194Z,995.1
2018-11-25T08:53:47.925Z,995.0
2018-11-25T08:54:48.796Z,995.0
2018-11-25T08:55:49.528Z,995.0
2018-11-25T08:56:51.403Z,995.0
2018-11-25T08:57:52.485Z,995.0
2018-11-25T08:58:53.216Z,995.0
2018-11-25T08:59:53.943Z,995.0
2018-11-25T09:00:54.672Z,995.0
2018-11-25T09:01:55.395Z,995.1
2018-11-25T09:02:56.120Z,995.1
2018-11-25T09:03:56.844Z,995.1
2018-11-25T09:04:57.553Z,995.0
2018-11-25T09:05:58.280Z,995.1
2018-11-25T09:06:59.016Z,995.1
2018-11-25T09:07:59.911Z,995.1
2018-11-25T09:09:00.631Z,995.0
2018-11-25T09:10:01.356Z,995.0
2018-11-25T09:11:02.078Z,995.1
2018-11-25T09:12:03.325Z,995.0
2018-11-25T09:13:04.565Z,995.0
2018-11-25T09:14:05.396Z,995.0
2018-11-25T09:15:06.230Z,995.0
2018-11-25T09:16:06.957Z,995.0
2018-11-25T09:17:07.983Z,994.9
2018-11-25T09:18:08.789Z,995.0
2018-11-25T09:19:09.504Z,994.9
2018-11-25T09:20:10.232Z,994.9
2018-11-25T09:21:11.000Z,995.0
2018-11-25T09:22:11.708Z,995.0
2018-11-25T09:23:12.432Z,995.0
2018-11-25T09:24:13.145Z,995.0
2018-11-25T09:25:13.869Z,995.0
2018-11-25T09:26:14.630Z,995.1
2018-11-25T09:27:15.347Z,995.1
2018-11-25T09:28:16.062Z,995.1
2018-11-25T09:29:16.791Z,995.1
2018-11-25T09:30:17.759Z,995.1
2018-11-25T09:31:18.630Z,995.1
2018-11-25T09:32:23.101Z,995.1
2018-11-25T09:33:20.059Z,995.1
2018-11-25T09:34:20.778Z,995.1
2018-11-25T09:35:21.494Z,995.1
2018-11-25T09:36:22.206Z,995.1
2018-11-25T09:37:22.925Z,995.1
2018-11-25T09:38:23.647Z,995.1
2018-11-25T09:39:24.372Z,995.1
2018-11-25T09:40:25.092Z,995.1
2018-11-25T09:41:25.872Z,995.1
2018-11-25T09:42:26.845Z,995.1
2018-11-25T09:43:27.557Z,995.2
2018-11-25T09:44:28.266Z,995.2
2018-11-25T09:45:28.985Z,995.2
2018-11-25T09:46:29.810Z,995.2
2018-11-25T09:47:30.540Z,995.2
2018-11-25T09:48:31.250Z,995.2
2018-11-25T09:49:32.213Z,995.2
2018-11-25T09:50:32.941Z,995.2
2018-11-25T09:51:33.654Z,995.2
2018-11-25T09:52:34.377Z,995.3
2018-11-25T09:53:35.351Z,995.3
2018-11-25T09:54:36.338Z,995.3
2018-11-25T09:55:37.061Z,995.3
2018-11-25T09:56:37.772Z,995.3
2018-11-25T09:57:38.848Z,995.3
2018-11-25T09:58:39.808Z,995.3
2018-11-25T09:59:40.538Z,995.3
2018-11-25T10:00:41.287Z,995.3
2018-11-25T10:01:42.445Z,995.3
2018-11-25T10:02:43.155Z,995.4
2018-11-25T10:03:43.888Z,995.3
2018-11-25T10:04:45.684Z,995.3
2018-11-25T10:05:46.410Z,995.4
2018-11-25T10:06:47.144Z,995.3
2018-11-25T10:07:47.886Z,995.4
2018-11-25T10:08:48.934Z,995.4
2018-11-25T10:09:49.808Z,995.3
2018-11-25T10:10:52.768Z,995.3
2018-11-25T10:11:51.268Z,995.3
2018-11-25T10:12:51.986Z,995.2
2018-11-25T10:13:52.711Z,995.3
2018-11-25T10:14:53.456Z,995.3
2018-11-25T10:15:54.177Z,995.3
2018-11-25T10:16:54.900Z,995.2
2018-11-25T10:17:59.878Z,995.2
2018-11-25T10:18:56.356Z,995.2
2018-11-25T10:19:57.105Z,995.2
2018-11-25T10:20:57.826Z,995.3
2018-11-25T10:21:58.564Z,995.2
2018-11-25T10:22:59.274Z,995.2
2018-11-25T10:24:00.066Z,995.2
2018-11-25T10:25:00.785Z,995.2
2018-11-25T10:26:01.507Z,995.2
2018-11-25T10:27:02.230Z,995.2
2018-11-25T10:28:02.953Z,995.2
2018-11-25T10:29:03.671Z,995.2
2018-11-25T10:30:04.383Z,995.2
2018-11-25T10:31:05.113Z,995.2
2018-11-25T10:32:05.836Z,995.2
2018-11-25T10:33:06.559Z,995.2
2018-11-25T10:34:07.285Z,995.2
2018-11-25T10:35:07.996Z,995.2
2018-11-25T10:36:08.765Z,995.1
2018-11-25T10:37:09.496Z,995.1
2018-11-25T10:38:10.217Z,995.1
2018-11-25T10:39:10.936Z,995.1
2018-11-25T10:40:11.669Z,995.1
2018-11-25T10:41:12.388Z,995.1
2018-11-25T10:42:13.113Z,995.1
2018-11-25T10:43:13.930Z,995.1
2018-11-25T10:44:14.657Z,995.1
2018-11-25T10:45:15.368Z,995.1
2018-11-25T10:46:16.101Z,995.1
2018-11-25T10:47:16.825Z,995.1
2018-11-25T10:48:17.559Z,995.1
2018-11-25T10:49:18.273Z,995.1
2018-11-25T10:50:18.996Z,995.1
2018-11-25T10:51:19.705Z,995.2
2018-11-25T10:52:20.431Z,995.1
2018-11-25T10:53:21.197Z,995.1
2018-11-25T10:54:21.919Z,995.1
2018-11-25T10:55:22.624Z,995.1
2018-11-25T10:56:23.340Z,995.0
2018-11-25T10:57:24.316Z,995.1
2018-11-25T10:58:25.095Z,995.1
2018-11-25T10:59:25.829Z,995.0
2018-11-25T11:00:26.545Z,995.0
2018-11-25T11:01:27.262Z,995.1
2018-11-25T11:02:27.990Z,995.1
2018-11-25T11:03:28.755Z,995.1
2018-11-25T11:04:29.734Z,995.1
2018-11-25T11:05:30.449Z,995.1
2018-11-25T11:06:31.175Z,995.1
2018-11-25T11:07:32.160Z,995.1
2018-11-25T11:08:33.017Z,995.1
2018-11-25T11:09:33.740Z,995.1
2018-11-25T11:10:34.469Z,995.1
2018-11-25T11:11:35.183Z,995.1
2018-11-25T11:12:35.914Z,995.1
2018-11-25T11:13:36.623Z,995.1
2018-11-25T11:14:37.346Z,995.1
2018-11-25T11:15:38.170Z,995.1
2018-11-25T11:16:38.893Z,995.1
2018-11-25T11:17:39.880Z,995.1
2018-11-25T11:18:40.602Z,995.1
2018-11-25T11:19:41.310Z,995.0
2018-11-25T11:20:42.049Z,995.1
2018-11-25T11:21:42.763Z,995.1
2018-11-25T11:22:43.543Z,995.1
2018-11-25T11:23:44.272Z,995.0
2018-11-25T11:24:44.998Z,995.0
2018-11-25T11:25:45.708Z,995.1
2018-11-25T11:26:46.436Z,995.1
2018-11-25T11:27:47.307Z,995.1
2018-11-25T11:28:48.420Z,995.1
2018-11-25T11:29:49.174Z,995.2
2018-11-25T11:30:49.906Z,995.1
2018-11-25T11:31:50.950Z,995.1
2018-11-25T11:32:51.975Z,995.1
2018-11-25T11:33:52.689Z,995.1
2018-11-25T11:34:53.399Z,995.1
2018-11-25T11:35:54.117Z,995.1
2018-11-25T11:36:54.834Z,995.1
2018-11-25T11:37:55.564Z,995.1
2018-11-25T11:38:56.275Z,995.1
2018-11-25T11:39:57.000Z,995.1
2018-11-25T11:40:57.718Z,995.1
2018-11-25T11:41:58.441Z,995.1
2018-11-25T11:42:59.163Z,995.1
2018-11-25T11:43:59.897Z,995.1
2018-11-25T11:45:00.619Z,995.1
2018-11-25T11:46:01.351Z,995.1
2018-11-25T11:47:02.336Z,995.1
2018-11-25T11:48:03.046Z,995.0
2018-11-25T11:49:03.764Z,995.0
2018-11-25T11:50:04.482Z,995.0
2018-11-25T11:51:05.201Z,995.0
2018-11-25T11:52:05.922Z,995.0
2018-11-25T11:53:06.643Z,995.0
2018-11-25T11:54:07.370Z,995.0
2018-11-25T11:55:08.139Z,995.0
2018-11-25T11:56:08.843Z,995.0
2018-11-25T11:57:09.567Z,995.1
2018-11-25T11:58:10.295Z,995.0
2018-11-25T11:59:11.016Z,995.1
2018-11-25T12:00:12.650Z,995.0
2018-11-25T12:01:13.367Z,995.0
2018-11-25T12:02:14.135Z,995.0
2018-11-25T12:03:14.859Z,995.1
2018-11-25T12:04:15.583Z,995.0
2018-11-25T12:05:16.297Z,995.0
2018-11-25T12:06:17.020Z,995.0
2018-11-25T12:07:17.792Z,995.0
2018-11-25T12:08:18.773Z,995.0
2018-11-25T12:09:19.507Z,995.0
2018-11-25T12:10:20.224Z,995.0
2018-11-25T12:11:20.947Z,995.0
2018-11-25T12:12:21.966Z,994.9
2018-11-25T12:13:22.673Z,995.0
2018-11-25T12:14:23.395Z,995.0
2018-11-25T12:15:30.406Z,995.0
2018-11-25T12:16:25.364Z,995.0
2018-11-25T12:17:26.069Z,995.0
2018-11-25T12:18:26.821Z,995.0
2018-11-25T12:19:27.502Z,995.0
2018-11-25T12:20:28.209Z,995.0
2018-11-25T12:21:28.932Z,995.0
2018-11-25T12:22:29.650Z,995.0
2018-11-25T12:23:30.423Z,995.0
2018-11-25T12:24:31.291Z,995.0
2018-11-25T12:25:32.290Z,995.0
2018-11-25T12:26:33.804Z,995.0
2018-11-25T12:27:34.593Z,995.0
2018-11-25T12:28:35.309Z,995.0
2018-11-25T12:29:36.145Z,995.0
2018-11-25T12:30:36.927Z,995.0
2018-11-25T12:31:37.638Z,995.0
2018-11-25T12:32:38.363Z,995.0
2018-11-25T12:33:39.090Z,995.0
2018-11-25T12:34:39.814Z,995.0
2018-11-25T12:35:40.585Z,995.0
2018-11-25T12:36:41.299Z,994.9
2018-11-25T12:37:42.019Z,995.0
2018-11-25T12:38:42.986Z,995.0
2018-11-25T12:39:43.712Z,994.9
2018-11-25T12:40:45.308Z,994.9
2018-11-25T12:41:46.605Z,994.9
2018-11-25T12:42:47.520Z,994.9
2018-11-25T12:43:48.246Z,994.9
2018-11-25T12:44:48.965Z,994.9
2018-11-25T12:45:49.783Z,994.9
2018-11-25T12:46:50.514Z,994.9
2018-11-25T12:47:51.226Z,994.9
2018-11-25T12:48:52.203Z,994.9
2018-11-25T12:49:52.927Z,994.9
2018-11-25T12:50:53.636Z,994.9
2018-11-25T12:51:54.358Z,994.9
2018-11-25T12:52:55.091Z,994.9
2018-11-25T12:53:55.802Z,994.9
2018-11-25T12:54:56.529Z,994.8
2018-11-25T12:55:57.241Z,994.9
2018-11-25T12:56:57.970Z,994.9
2018-11-25T12:57:58.680Z,994.9
2018-11-25T12:58:59.398Z,994.9
2018-11-25T13:00:00.367Z,994.9
2018-11-25T13:01:01.203Z,994.9
2018-11-25T13:02:01.939Z,994.9